タシュケント の空港の天気 - METARとTAF

タシケント空港 ( UTTT / TAS ) - ウズベキスタン タシュケント
飛行場実況気象(Metar)
観測時間08/17 08:00 UZT (08/17 03:00 UTC)
風向・風速南南西 4m/s
視程10km以上
天気現象
なし
気温21℃
湿度49%
気圧1012hPa
METARUTTT 170300Z 20008KT CAVOK 21/10 Q1012 R08R/CLRD70 NOSIG
過去の天気等 Google飛行場航空写真 Wunderground天気予報

過去48時間のMETAR

飛行場予報(TAF)
発表時間: 8/17 04:00 UZT (8/16 23:00 UTC)
予報対象時間: 17日5時 UZT ~ 18日5時 UZT
風向・風速南西 5m/s
視程7,000m
少しの積乱雲 雲底高度 1,830m
全天の4割程度の雲 雲底高度 3,050m
17日5時 UZT ~ 17日17時 UZT に一時的に
風向・風速北西 8m/s 瞬間風速 13m/s
TAF UTTT 162300Z 1700/1724 22010KT 7000 FEW060CB SCT100
TEMPO 1700/1712 32015G25KT